createdAt,value
2023-01-03T00:05:03.007Z,8.45
2023-01-03T00:10:24.850Z,8.93
2023-01-03T00:15:46.837Z,8.10
2023-01-03T00:21:08.863Z,8.48
2023-01-03T00:26:30.857Z,8.55
2023-01-03T00:31:52.773Z,8.95
2023-01-03T00:37:15.012Z,9.20
2023-01-03T00:42:36.890Z,8.93
2023-01-03T00:47:58.742Z,9.32
2023-01-03T00:53:21.165Z,8.93
2023-01-03T00:58:43.204Z,8.10
2023-01-03T01:04:10.648Z,8.55
2023-01-03T01:09:36.087Z,8.45
2023-01-03T01:14:57.924Z,8.70
2023-01-03T01:20:19.772Z,8.35
2023-01-03T01:25:41.634Z,8.50
2023-01-03T01:31:05.003Z,8.80
2023-01-03T01:36:29.905Z,9.02
2023-01-03T01:41:55.867Z,9.55
2023-01-03T01:47:48.644Z,8.67
2023-01-03T01:53:14.936Z,9.25
2023-01-03T01:58:38.820Z,8.90
2023-01-03T02:04:07.051Z,8.65
2023-01-03T02:09:28.949Z,7.95
2023-01-03T02:15:07.764Z,8.38
2023-01-03T02:20:47.494Z,8.15
2023-01-03T02:26:33.266Z,8.52
2023-01-03T02:32:30.746Z,7.80
2023-01-03T02:38:04.769Z,8.43
2023-01-03T02:43:53.723Z,8.30
2023-01-03T02:49:38.455Z,8.73
2023-01-03T02:55:11.526Z,8.43
2023-01-03T03:00:38.486Z,8.20
2023-01-03T03:06:26.274Z,8.43
2023-01-03T03:11:48.755Z,8.00
2023-01-03T03:17:19.862Z,7.82
2023-01-03T03:22:54.184Z,7.63
2023-01-03T03:28:21.061Z,7.90
2023-01-03T03:33:51.796Z,8.38
2023-01-03T03:39:15.412Z,7.93
2023-01-03T03:44:39.799Z,7.65
2023-01-03T03:50:10.905Z,7.85
2023-01-03T03:55:42.033Z,7.10
2023-01-03T04:01:05.247Z,6.88
2023-01-03T04:06:33.789Z,7.03
2023-01-03T04:11:55.725Z,6.80
2023-01-03T04:17:17.567Z,6.65
2023-01-03T04:22:39.430Z,5.97
2023-01-03T04:28:01.251Z,4.95
2023-01-03T04:33:23.073Z,5.45
2023-01-03T04:38:45.201Z,4.63
2023-01-03T04:44:07.181Z,3.88
2023-01-03T04:49:28.993Z,3.47
2023-01-03T04:54:50.916Z,2.85
2023-01-03T05:00:13.491Z,2.53
2023-01-03T05:05:37.437Z,2.05
2023-01-03T05:10:59.289Z,2.00
2023-01-03T05:16:21.174Z,2.55
2023-01-03T05:21:43.162Z,2.28
2023-01-03T05:27:05.955Z,2.17
2023-01-03T05:32:27.808Z,2.30
2023-01-03T05:37:53.092Z,2.60
2023-01-03T05:43:14.956Z,2.30
2023-01-03T05:48:36.793Z,2.75
2023-01-03T05:53:58.650Z,2.30
2023-01-03T05:59:20.477Z,2.20
2023-01-03T06:04:42.374Z,2.35
2023-01-03T06:10:05.803Z,2.42
2023-01-03T06:15:27.704Z,2.00
2023-01-03T06:20:49.576Z,2.80
2023-01-03T06:26:11.753Z,2.92
2023-01-03T06:31:33.667Z,2.35
2023-01-03T06:36:55.571Z,2.20
2023-01-03T06:42:17.392Z,2.38
2023-01-03T06:47:39.610Z,2.58
2023-01-03T06:53:01.492Z,2.88
2023-01-03T06:58:23.452Z,2.28
2023-01-03T07:03:45.281Z,2.03
2023-01-03T07:09:08.080Z,2.10
2023-01-03T07:14:29.907Z,1.63
2023-01-03T07:19:51.830Z,1.48
2023-01-03T07:25:13.705Z,1.20
2023-01-03T07:30:39.975Z,1.48
2023-01-03T07:36:11.545Z,1.30
2023-01-03T07:41:33.990Z,1.40
2023-01-03T07:46:55.901Z,1.40
2023-01-03T07:52:17.937Z,1.65
2023-01-03T07:57:39.835Z,2.22
2023-01-03T08:03:01.857Z,1.73
2023-01-03T08:08:23.770Z,2.40
2023-01-03T08:13:46.220Z,2.60
2023-01-03T08:19:08.116Z,2.65
2023-01-03T08:24:30.066Z,3.35
2023-01-03T08:29:51.909Z,3.10
2023-01-03T08:35:14.269Z,3.50
2023-01-03T08:40:41.945Z,3.30
2023-01-03T08:46:08.697Z,3.65
2023-01-03T08:51:30.599Z,4.03
2023-01-03T08:56:52.537Z,4.43
2023-01-03T09:02:14.569Z,5.03
2023-01-03T09:07:36.544Z,4.90
2023-01-03T09:12:58.449Z,4.70
2023-01-03T09:18:20.469Z,4.20
2023-01-03T09:23:42.325Z,4.50
2023-01-03T09:29:04.205Z,4.30
2023-01-03T09:34:26.043Z,3.28
2023-01-03T09:39:47.926Z,3.70
2023-01-03T09:45:17.911Z,2.40
2023-01-03T09:51:15.847Z,3.25
2023-01-03T09:56:24.146Z,2.95
2023-01-03T10:02:16.065Z,2.03
2023-01-03T10:08:03.925Z,1.40
2023-01-03T10:13:33.057Z,1.23
2023-01-03T10:19:16.503Z,1.65
2023-01-03T10:24:54.960Z,1.50
2023-01-03T10:30:32.596Z,1.30
2023-01-03T10:35:54.449Z,1.23
2023-01-03T10:41:31.476Z,1.80
2023-01-03T10:46:56.763Z,1.67
2023-01-03T10:52:20.562Z,1.08
2023-01-03T10:57:58.281Z,1.60
2023-01-03T11:03:23.229Z,1.50
2023-01-03T11:08:47.963Z,1.50
2023-01-03T11:14:09.819Z,2.05
2023-01-03T11:19:33.847Z,1.38
2023-01-03T11:25:16.568Z,1.90
2023-01-03T11:30:38.359Z,1.30
2023-01-03T11:36:28.473Z,1.20
2023-01-03T11:42:28.597Z,1.55
2023-01-03T11:47:56.127Z,1.13
2023-01-03T11:53:34.479Z,1.45
2023-01-03T11:59:11.461Z,1.38
2023-01-03T12:05:18.239Z,1.65
2023-01-03T12:10:52.094Z,3.83
2023-01-03T12:16:24.247Z,1.67
2023-01-03T12:22:05.156Z,1.80
2023-01-03T12:27:38.868Z,1.73
2023-01-03T12:33:12.629Z,1.13
2023-01-03T12:38:41.877Z,1.70
2023-01-03T12:44:12.508Z,1.52
2023-01-03T12:50:02.955Z,1.75
2023-01-03T12:55:54.871Z,1.75
2023-01-03T13:01:35.924Z,1.50
2023-01-03T13:07:21.678Z,1.40
2023-01-03T13:12:51.145Z,1.30
2023-01-03T13:18:22.076Z,1.52
2023-01-03T13:23:57.638Z,1.48
2023-01-03T13:29:45.773Z,1.13
2023-01-03T13:35:19.996Z,1.40
2023-01-03T13:41:16.700Z,1.80
2023-01-03T13:46:32.588Z,1.98
2023-01-03T13:51:58.841Z,1.10
2023-01-03T13:57:50.536Z,1.15
2023-01-03T14:03:24.611Z,1.27
2023-01-03T14:09:11.304Z,1.38
2023-01-03T14:14:39.947Z,1.50
2023-01-03T14:20:13.501Z,1.13
2023-01-03T14:25:40.704Z,1.20
2023-01-03T14:31:06.310Z,1.40
2023-01-03T14:36:29.088Z,5.67
2023-01-03T14:41:51.097Z,1.50
2023-01-03T14:47:17.103Z,1.17
2023-01-03T14:52:41.494Z,1.77
2023-01-03T14:58:23.228Z,1.70
2023-01-03T15:03:46.994Z,1.33
2023-01-03T15:09:21.554Z,1.60
2023-01-03T15:14:43.455Z,1.55
2023-01-03T15:20:08.641Z,2.00
2023-01-03T15:25:37.820Z,1.70
2023-01-03T15:31:27.886Z,1.77
2023-01-03T15:37:21.927Z,1.52
2023-01-03T15:42:46.762Z,1.73
2023-01-03T15:48:18.105Z,1.80
2023-01-03T15:53:44.104Z,2.45
2023-01-03T15:59:09.039Z,2.72
2023-01-03T16:04:31.158Z,2.33
2023-01-03T16:09:53.039Z,2.58
2023-01-03T16:15:20.998Z,2.33
2023-01-03T16:20:43.087Z,2.22
2023-01-03T16:26:05.320Z,1.90
2023-01-03T16:31:30.764Z,2.85
2023-01-03T16:36:53.053Z,2.63
2023-01-03T16:42:15.096Z,2.38
2023-01-03T16:47:37.056Z,2.60
2023-01-03T16:52:58.936Z,2.58
2023-01-03T16:58:20.837Z,2.88
2023-01-03T17:03:42.808Z,3.22
2023-01-03T17:09:22.386Z,3.30
2023-01-03T17:14:44.334Z,3.60
2023-01-03T17:20:20.039Z,4.80
2023-01-03T17:25:41.917Z,4.60
2023-01-03T17:31:03.893Z,5.15
2023-01-03T17:36:30.275Z,4.65
2023-01-03T17:41:53.498Z,4.38
2023-01-03T17:47:15.347Z,4.20
2023-01-03T17:52:38.472Z,4.20
2023-01-03T17:58:04.434Z,4.53
2023-01-03T18:03:26.424Z,4.95
2023-01-03T18:08:48.580Z,5.47
2023-01-03T18:14:15.759Z,5.43
2023-01-03T18:19:37.636Z,4.93
2023-01-03T18:24:59.597Z,5.18
2023-01-03T18:30:21.686Z,4.78
2023-01-03T18:35:44.011Z,5.40
2023-01-03T18:41:06.433Z,4.97
2023-01-03T18:46:29.561Z,4.97
2023-01-03T18:51:53.377Z,5.15
2023-01-03T18:57:15.281Z,5.43
2023-01-03T19:02:37.346Z,5.43
2023-01-03T19:07:59.367Z,6.07
2023-01-03T19:13:30.558Z,6.47
2023-01-03T19:18:53.285Z,5.93
2023-01-03T19:24:38.894Z,7.03
2023-01-03T19:30:04.351Z,6.13
2023-01-03T19:35:27.176Z,5.25
2023-01-03T19:40:49.800Z,6.38
2023-01-03T19:46:16.858Z,7.28
2023-01-03T19:51:38.843Z,4.75
2023-01-03T19:57:01.427Z,6.30
2023-01-03T20:02:32.333Z,5.55
2023-01-03T20:07:54.338Z,5.63
2023-01-03T20:13:22.566Z,5.55
2023-01-03T20:18:44.602Z,5.88
2023-01-03T20:24:07.091Z,5.65
2023-01-03T20:29:28.975Z,5.53
2023-01-03T20:34:50.876Z,5.47
2023-01-03T20:40:21.696Z,5.70
2023-01-03T20:45:44.192Z,4.90
2023-01-03T20:51:06.172Z,4.90
2023-01-03T20:56:28.821Z,5.10
2023-01-03T21:01:51.087Z,5.57
2023-01-03T21:07:30.326Z,4.93
2023-01-03T21:12:52.240Z,4.30
2023-01-03T21:18:14.782Z,4.25
2023-01-03T21:23:36.642Z,5.25
2023-01-03T21:28:59.627Z,4.40
2023-01-03T21:34:21.646Z,4.60
2023-01-03T21:39:43.588Z,4.57
2023-01-03T21:45:05.841Z,4.90
2023-01-03T21:50:29.025Z,4.60
2023-01-03T21:55:50.972Z,5.20
2023-01-03T22:01:15.968Z,4.50
2023-01-03T22:06:38.254Z,4.35
2023-01-03T22:12:00.160Z,4.25
2023-01-03T22:17:22.026Z,4.65
2023-01-03T22:22:44.773Z,5.00
2023-01-03T22:28:06.640Z,4.57
2023-01-03T22:33:28.554Z,4.90
2023-01-03T22:38:52.643Z,4.45
2023-01-03T22:44:14.503Z,4.50
2023-01-03T22:49:36.901Z,4.40
2023-01-03T22:54:59.195Z,4.20
2023-01-03T23:00:21.111Z,3.72
2023-01-03T23:05:42.937Z,4.00
2023-01-03T23:11:14.223Z,3.55
2023-01-03T23:16:36.192Z,4.18
2023-01-03T23:21:58.103Z,3.63
2023-01-03T23:27:20.034Z,4.13
2023-01-03T23:32:41.956Z,3.80
2023-01-03T23:38:03.801Z,4.68
2023-01-03T23:43:25.865Z,5.20
2023-01-03T23:48:48.605Z,6.00
2023-01-03T23:54:10.985Z,5.03
2023-01-03T23:59:32.812Z,4.63
